sensor_id;sensor_type;location;lat;lon;timestamp;temperature;humidity
17954;DHT22;9102;53.548;9.926;2022-12-18T00:02:04;-3.30;99.90
17954;DHT22;9102;53.548;9.926;2022-12-18T00:04:31;-3.40;99.90
17954;DHT22;9102;53.548;9.926;2022-12-18T00:06:58;-3.40;99.90
17954;DHT22;9102;53.548;9.926;2022-12-18T00:09:25;-3.40;99.90
17954;DHT22;9102;53.548;9.926;2022-12-18T00:11:51;-3.30;99.90
17954;DHT22;9102;53.548;9.926;2022-12-18T00:14:20;-3.30;99.90
17954;DHT22;9102;53.548;9.926;2022-12-18T00:16:47;-3.30;99.90
17954;DHT22;9102;53.548;9.926;2022-12-18T00:19:14;-3.40;99.90
17954;DHT22;9102;53.548;9.926;2022-12-18T00:21:42;-3.40;99.90
17954;DHT22;9102;53.548;9.926;2022-12-18T00:24:09;-3.30;99.90
17954;DHT22;9102;53.548;9.926;2022-12-18T00:26:37;-3.30;99.90
17954;DHT22;9102;53.548;9.926;2022-12-18T00:29:07;-3.10;99.90
17954;DHT22;9102;53.548;9.926;2022-12-18T00:31:37;-3.30;99.90
17954;DHT22;9102;53.548;9.926;2022-12-18T00:34:04;-3.30;99.90
17954;DHT22;9102;53.548;9.926;2022-12-18T00:36:32;-3.40;99.90
17954;DHT22;9102;53.548;9.926;2022-12-18T00:39:03;-3.30;99.90
17954;DHT22;9102;53.548;9.926;2022-12-18T00:41:30;-3.30;99.90
17954;DHT22;9102;53.548;9.926;2022-12-18T00:44:16;-3.40;99.90
17954;DHT22;9102;53.548;9.926;2022-12-18T00:46:46;-3.40;99.90
17954;DHT22;9102;53.548;9.926;2022-12-18T00:49:14;-3.40;99.90
17954;DHT22;9102;53.548;9.926;2022-12-18T00:51:41;-3.40;99.90
17954;DHT22;9102;53.548;9.926;2022-12-18T00:54:08;-3.40;99.90
17954;DHT22;9102;53.548;9.926;2022-12-18T00:56:36;-3.40;99.90
17954;DHT22;9102;53.548;9.926;2022-12-18T00:59:04;-3.40;99.90
17954;DHT22;9102;53.548;9.926;2022-12-18T01:01:31;-3.40;99.90
17954;DHT22;9102;53.548;9.926;2022-12-18T01:04:01;-3.40;99.90
17954;DHT22;9102;53.548;9.926;2022-12-18T01:06:28;-3.40;99.90
17954;DHT22;9102;53.548;9.926;2022-12-18T01:08:55;-3.40;99.90
17954;DHT22;9102;53.548;9.926;2022-12-18T01:11:22;-3.50;99.90
17954;DHT22;9102;53.548;9.926;2022-12-18T01:13:51;-3.50;99.90
17954;DHT22;9102;53.548;9.926;2022-12-18T01:16:18;-3.50;99.90
17954;DHT22;9102;53.548;9.926;2022-12-18T01:18:45;-3.50;99.90
17954;DHT22;9102;53.548;9.926;2022-12-18T01:21:15;-3.40;99.90
17954;DHT22;9102;53.548;9.926;2022-12-18T01:23:42;-3.40;99.90
17954;DHT22;9102;53.548;9.926;2022-12-18T01:26:11;-3.40;99.90
17954;DHT22;9102;53.548;9.926;2022-12-18T01:28:38;-3.50;99.90
17954;DHT22;9102;53.548;9.926;2022-12-18T01:31:17;-3.50;99.90
17954;DHT22;9102;53.548;9.926;2022-12-18T01:33:44;-3.50;99.90
17954;DHT22;9102;53.548;9.926;2022-12-18T01:36:19;-3.50;99.90
17954;DHT22;9102;53.548;9.926;2022-12-18T01:38:46;-3.50;99.90
17954;DHT22;9102;53.548;9.926;2022-12-18T01:41:14;-3.60;99.90
17954;DHT22;9102;53.548;9.926;2022-12-18T01:43:47;-3.60;99.90
17954;DHT22;9102;53.548;9.926;2022-12-18T01:46:14;-3.60;99.90
17954;DHT22;9102;53.548;9.926;2022-12-18T01:48:42;-3.60;99.90
17954;DHT22;9102;53.548;9.926;2022-12-18T01:51:10;-3.60;99.90
17954;DHT22;9102;53.548;9.926;2022-12-18T01:53:40;-3.60;99.90
17954;DHT22;9102;53.548;9.926;2022-12-18T01:56:12;-3.60;99.90
17954;DHT22;9102;53.548;9.926;2022-12-18T01:58:46;-3.60;99.90
17954;DHT22;9102;53.548;9.926;2022-12-18T02:01:15;-3.60;99.90
17954;DHT22;9102;53.548;9.926;2022-12-18T02:03:43;-3.60;99.90
17954;DHT22;9102;53.548;9.926;2022-12-18T02:06:13;-3.60;99.90
17954;DHT22;9102;53.548;9.926;2022-12-18T02:08:48;-3.60;99.90
17954;DHT22;9102;53.548;9.926;2022-12-18T02:11:29;-3.60;99.90
17954;DHT22;9102;53.548;9.926;2022-12-18T02:14:06;-3.70;99.90
17954;DHT22;9102;53.548;9.926;2022-12-18T02:16:39;-3.70;99.90
17954;DHT22;9102;53.548;9.926;2022-12-18T02:19:20;-3.70;99.90
17954;DHT22;9102;53.548;9.926;2022-12-18T02:22:02;-3.70;99.90
17954;DHT22;9102;53.548;9.926;2022-12-18T02:24:39;-3.70;99.90
17954;DHT22;9102;53.548;9.926;2022-12-18T02:27:12;-3.70;99.90
17954;DHT22;9102;53.548;9.926;2022-12-18T02:29:44;-3.70;99.90
17954;DHT22;9102;53.548;9.926;2022-12-18T02:32:16;-3.70;99.90
17954;DHT22;9102;53.548;9.926;2022-12-18T02:34:44;-3.70;99.90
17954;DHT22;9102;53.548;9.926;2022-12-18T02:37:14;-3.70;99.90
17954;DHT22;9102;53.548;9.926;2022-12-18T02:39:43;-3.80;99.90
17954;DHT22;9102;53.548;9.926;2022-12-18T02:42:13;-3.80;99.90
17954;DHT22;9102;53.548;9.926;2022-12-18T02:44:44;-3.80;99.90
17954;DHT22;9102;53.548;9.926;2022-12-18T02:47:11;-3.80;99.90
17954;DHT22;9102;53.548;9.926;2022-12-18T02:49:44;-3.80;99.90
17954;DHT22;9102;53.548;9.926;2022-12-18T02:52:18;-3.80;99.90
17954;DHT22;9102;53.548;9.926;2022-12-18T02:54:57;-3.80;99.90
17954;DHT22;9102;53.548;9.926;2022-12-18T02:57:34;-3.80;99.90
17954;DHT22;9102;53.548;9.926;2022-12-18T03:00:05;-3.90;99.90
17954;DHT22;9102;53.548;9.926;2022-12-18T03:02:38;-3.90;99.90
17954;DHT22;9102;53.548;9.926;2022-12-18T03:05:12;-3.90;99.90
17954;DHT22;9102;53.548;9.926;2022-12-18T03:07:44;-3.90;99.90
17954;DHT22;9102;53.548;9.926;2022-12-18T03:10:16;-4.00;99.90
17954;DHT22;9102;53.548;9.926;2022-12-18T03:12:52;-3.90;99.90
17954;DHT22;9102;53.548;9.926;2022-12-18T03:15:23;-4.00;99.90
17954;DHT22;9102;53.548;9.926;2022-12-18T03:17:54;-4.00;99.90
17954;DHT22;9102;53.548;9.926;2022-12-18T03:20:23;-4.00;99.90
17954;DHT22;9102;53.548;9.926;2022-12-18T03:22:57;-4.00;99.90
17954;DHT22;9102;53.548;9.926;2022-12-18T03:25:27;-4.00;99.90
17954;DHT22;9102;53.548;9.926;2022-12-18T03:27:57;-4.00;99.90
17954;DHT22;9102;53.548;9.926;2022-12-18T03:30:29;-4.10;99.90
17954;DHT22;9102;53.548;9.926;2022-12-18T03:33:02;-4.10;99.90
17954;DHT22;9102;53.548;9.926;2022-12-18T03:35:34;-4.10;99.90
17954;DHT22;9102;53.548;9.926;2022-12-18T03:38:02;-4.10;99.90
17954;DHT22;9102;53.548;9.926;2022-12-18T03:40:35;-4.20;99.90
17954;DHT22;9102;53.548;9.926;2022-12-18T03:43:10;-4.20;99.90
17954;DHT22;9102;53.548;9.926;2022-12-18T03:45:42;-4.20;99.90
17954;DHT22;9102;53.548;9.926;2022-12-18T03:48:15;-4.20;99.90
17954;DHT22;9102;53.548;9.926;2022-12-18T03:50:46;-4.20;99.90
17954;DHT22;9102;53.548;9.926;2022-12-18T03:53:22;-4.20;99.90
17954;DHT22;9102;53.548;9.926;2022-12-18T03:55:50;-4.20;99.90
17954;DHT22;9102;53.548;9.926;2022-12-18T03:58:20;-4.20;99.90
17954;DHT22;9102;53.548;9.926;2022-12-18T04:00:50;-4.20;99.90
17954;DHT22;9102;53.548;9.926;2022-12-18T04:03:19;-4.20;99.90
17954;DHT22;9102;53.548;9.926;2022-12-18T04:05:48;-4.30;99.90
17954;DHT22;9102;53.548;9.926;2022-12-18T04:08:18;-4.30;99.90
17954;DHT22;9102;53.548;9.926;2022-12-18T04:10:45;-4.20;99.90
17954;DHT22;9102;53.548;9.926;2022-12-18T04:13:12;-4.30;99.90
17954;DHT22;9102;53.548;9.926;2022-12-18T04:15:40;-4.30;99.90
17954;DHT22;9102;53.548;9.926;2022-12-18T04:18:08;-4.30;99.90
17954;DHT22;9102;53.548;9.926;2022-12-18T04:20:34;-4.20;99.90
17954;DHT22;9102;53.548;9.926;2022-12-18T04:23:01;-4.20;99.90
17954;DHT22;9102;53.548;9.926;2022-12-18T04:25:28;-4.30;99.90
17954;DHT22;9102;53.548;9.926;2022-12-18T04:27:54;-4.30;99.90
17954;DHT22;9102;53.548;9.926;2022-12-18T04:30:21;-4.30;99.90
17954;DHT22;9102;53.548;9.926;2022-12-18T04:32:49;-4.30;99.90
17954;DHT22;9102;53.548;9.926;2022-12-18T04:35:16;-4.30;99.90
17954;DHT22;9102;53.548;9.926;2022-12-18T04:37:43;-4.30;99.90
17954;DHT22;9102;53.548;9.926;2022-12-18T04:40:11;-4.30;99.90
17954;DHT22;9102;53.548;9.926;2022-12-18T04:42:39;-4.20;99.90
17954;DHT22;9102;53.548;9.926;2022-12-18T04:45:07;-4.20;99.90
17954;DHT22;9102;53.548;9.926;2022-12-18T04:47:34;-4.20;99.90
17954;DHT22;9102;53.548;9.926;2022-12-18T04:50:02;-4.20;99.90
17954;DHT22;9102;53.548;9.926;2022-12-18T04:52:30;-4.20;99.90
17954;DHT22;9102;53.548;9.926;2022-12-18T04:54:57;-4.10;99.90
17954;DHT22;9102;53.548;9.926;2022-12-18T04:57:24;-4.20;99.90
17954;DHT22;9102;53.548;9.926;2022-12-18T04:59:51;-4.20;99.90
17954;DHT22;9102;53.548;9.926;2022-12-18T05:02:18;-4.20;99.90
17954;DHT22;9102;53.548;9.926;2022-12-18T05:04:45;-4.20;99.90
17954;DHT22;9102;53.548;9.926;2022-12-18T05:07:13;-4.30;99.90
17954;DHT22;9102;53.548;9.926;2022-12-18T05:09:40;-4.20;99.90
17954;DHT22;9102;53.548;9.926;2022-12-18T05:12:06;-4.30;99.90
17954;DHT22;9102;53.548;9.926;2022-12-18T05:14:33;-4.40;99.90
17954;DHT22;9102;53.548;9.926;2022-12-18T05:17:00;-4.40;99.90
17954;DHT22;9102;53.548;9.926;2022-12-18T05:19:27;-4.40;99.90
17954;DHT22;9102;53.548;9.926;2022-12-18T05:21:53;-4.40;99.90
17954;DHT22;9102;53.548;9.926;2022-12-18T05:24:22;-4.30;99.90
17954;DHT22;9102;53.548;9.926;2022-12-18T05:26:48;-4.30;99.90
17954;DHT22;9102;53.548;9.926;2022-12-18T05:29:15;-4.30;99.90
17954;DHT22;9102;53.548;9.926;2022-12-18T05:31:42;-4.30;99.90
17954;DHT22;9102;53.548;9.926;2022-12-18T05:34:09;-4.40;99.90
17954;DHT22;9102;53.548;9.926;2022-12-18T05:36:35;-4.50;99.90
17954;DHT22;9102;53.548;9.926;2022-12-18T05:39:02;-4.50;99.90
17954;DHT22;9102;53.548;9.926;2022-12-18T05:41:31;-4.50;99.90
17954;DHT22;9102;53.548;9.926;2022-12-18T05:43:58;-4.50;99.90
17954;DHT22;9102;53.548;9.926;2022-12-18T05:46:25;-4.50;99.90
17954;DHT22;9102;53.548;9.926;2022-12-18T05:48:52;-4.50;99.90
17954;DHT22;9102;53.548;9.926;2022-12-18T05:51:21;-4.60;99.90
17954;DHT22;9102;53.548;9.926;2022-12-18T05:53:48;-4.70;99.90
17954;DHT22;9102;53.548;9.926;2022-12-18T05:56:17;-4.60;99.90
17954;DHT22;9102;53.548;9.926;2022-12-18T05:58:46;-4.60;99.90
17954;DHT22;9102;53.548;9.926;2022-12-18T06:01:14;-4.60;99.90
17954;DHT22;9102;53.548;9.926;2022-12-18T06:03:42;-4.70;99.90
17954;DHT22;9102;53.548;9.926;2022-12-18T06:06:16;-4.60;99.90
17954;DHT22;9102;53.548;9.926;2022-12-18T06:08:43;-4.60;99.90
17954;DHT22;9102;53.548;9.926;2022-12-18T06:11:10;-4.60;99.90
17954;DHT22;9102;53.548;9.926;2022-12-18T06:13:37;-4.60;99.90
17954;DHT22;9102;53.548;9.926;2022-12-18T06:16:06;-4.60;99.90
17954;DHT22;9102;53.548;9.926;2022-12-18T06:18:33;-4.60;99.90
17954;DHT22;9102;53.548;9.926;2022-12-18T06:21:00;-4.60;99.90
17954;DHT22;9102;53.548;9.926;2022-12-18T06:23:27;-4.60;99.90
17954;DHT22;9102;53.548;9.926;2022-12-18T06:25:54;-4.60;99.90
17954;DHT22;9102;53.548;9.926;2022-12-18T06:28:21;-4.60;99.90
17954;DHT22;9102;53.548;9.926;2022-12-18T06:30:49;-4.60;99.90
17954;DHT22;9102;53.548;9.926;2022-12-18T06:33:17;-4.70;99.90
17954;DHT22;9102;53.548;9.926;2022-12-18T06:35:44;-4.70;99.90
17954;DHT22;9102;53.548;9.926;2022-12-18T06:38:11;-4.70;99.90
17954;DHT22;9102;53.548;9.926;2022-12-18T06:40:38;-4.70;99.90
17954;DHT22;9102;53.548;9.926;2022-12-18T06:43:05;-4.70;99.90
17954;DHT22;9102;53.548;9.926;2022-12-18T06:45:32;-4.70;99.90
17954;DHT22;9102;53.548;9.926;2022-12-18T06:47:59;-4.70;99.90
17954;DHT22;9102;53.548;9.926;2022-12-18T06:50:27;-4.70;99.90
17954;DHT22;9102;53.548;9.926;2022-12-18T06:52:54;-4.70;99.90
17954;DHT22;9102;53.548;9.926;2022-12-18T06:55:21;-4.70;99.90
17954;DHT22;9102;53.548;9.926;2022-12-18T06:57:47;-4.70;99.90
17954;DHT22;9102;53.548;9.926;2022-12-18T07:00:14;-4.80;99.90
17954;DHT22;9102;53.548;9.926;2022-12-18T07:02:41;-4.70;99.90
17954;DHT22;9102;53.548;9.926;2022-12-18T07:05:08;-4.80;99.90
17954;DHT22;9102;53.548;9.926;2022-12-18T07:07:37;-4.80;99.90
17954;DHT22;9102;53.548;9.926;2022-12-18T07:10:04;-4.80;99.90
17954;DHT22;9102;53.548;9.926;2022-12-18T07:12:31;-4.80;99.90
17954;DHT22;9102;53.548;9.926;2022-12-18T07:14:58;-4.80;99.90
17954;DHT22;9102;53.548;9.926;2022-12-18T07:17:24;-4.90;99.90
17954;DHT22;9102;53.548;9.926;2022-12-18T07:19:51;-4.90;99.90
17954;DHT22;9102;53.548;9.926;2022-12-18T07:22:18;-4.90;99.90
17954;DHT22;9102;53.548;9.926;2022-12-18T07:24:46;-4.80;99.90
17954;DHT22;9102;53.548;9.926;2022-12-18T07:27:13;-4.80;99.90
17954;DHT22;9102;53.548;9.926;2022-12-18T07:29:40;-4.80;99.90
17954;DHT22;9102;53.548;9.926;2022-12-18T07:32:07;-4.80;99.90
17954;DHT22;9102;53.548;9.926;2022-12-18T07:34:33;-4.80;99.90
17954;DHT22;9102;53.548;9.926;2022-12-18T07:37:01;-4.80;99.90
17954;DHT22;9102;53.548;9.926;2022-12-18T07:39:27;-4.80;99.90
17954;DHT22;9102;53.548;9.926;2022-12-18T07:41:58;-4.80;99.90
17954;DHT22;9102;53.548;9.926;2022-12-18T07:44:43;-4.70;99.90
17954;DHT22;9102;53.548;9.926;2022-12-18T07:47:09;-4.70;99.90
17954;DHT22;9102;53.548;9.926;2022-12-18T07:49:36;-4.60;99.90
17954;DHT22;9102;53.548;9.926;2022-12-18T07:52:03;-4.60;99.90
17954;DHT22;9102;53.548;9.926;2022-12-18T07:54:30;-4.60;99.90
17954;DHT22;9102;53.548;9.926;2022-12-18T07:56:59;-4.50;99.90
17954;DHT22;9102;53.548;9.926;2022-12-18T07:59:26;-4.50;99.90
17954;DHT22;9102;53.548;9.926;2022-12-18T08:01:53;-4.50;99.90
17954;DHT22;9102;53.548;9.926;2022-12-18T08:04:20;-4.40;99.90
17954;DHT22;9102;53.548;9.926;2022-12-18T08:06:47;-4.40;99.90
17954;DHT22;9102;53.548;9.926;2022-12-18T08:09:15;-4.50;99.90
17954;DHT22;9102;53.548;9.926;2022-12-18T08:11:42;-4.40;99.90
17954;DHT22;9102;53.548;9.926;2022-12-18T08:14:10;-4.40;99.90
17954;DHT22;9102;53.548;9.926;2022-12-18T08:16:37;-4.40;99.90
17954;DHT22;9102;53.548;9.926;2022-12-18T08:19:04;-4.40;99.90
17954;DHT22;9102;53.548;9.926;2022-12-18T08:21:31;-4.40;99.90
17954;DHT22;9102;53.548;9.926;2022-12-18T08:24:00;-4.40;99.90
17954;DHT22;9102;53.548;9.926;2022-12-18T08:26:30;-4.40;99.90
17954;DHT22;9102;53.548;9.926;2022-12-18T08:28:59;-4.30;99.90
17954;DHT22;9102;53.548;9.926;2022-12-18T08:31:28;-4.30;99.90
17954;DHT22;9102;53.548;9.926;2022-12-18T08:33:56;-4.20;99.90
17954;DHT22;9102;53.548;9.926;2022-12-18T08:36:23;-4.20;99.90
17954;DHT22;9102;53.548;9.926;2022-12-18T08:38:51;-4.20;99.90
17954;DHT22;9102;53.548;9.926;2022-12-18T08:41:18;-4.20;99.90
17954;DHT22;9102;53.548;9.926;2022-12-18T08:43:45;-4.20;99.90
17954;DHT22;9102;53.548;9.926;2022-12-18T08:46:34;-4.20;99.90
17954;DHT22;9102;53.548;9.926;2022-12-18T08:49:02;-4.20;99.90
17954;DHT22;9102;53.548;9.926;2022-12-18T08:51:32;-4.10;99.90
17954;DHT22;9102;53.548;9.926;2022-12-18T08:54:01;-4.10;99.90
17954;DHT22;9102;53.548;9.926;2022-12-18T08:56:30;-4.10;99.90
17954;DHT22;9102;53.548;9.926;2022-12-18T08:58:57;-4.10;99.90
17954;DHT22;9102;53.548;9.926;2022-12-18T09:01:24;-4.00;99.90
17954;DHT22;9102;53.548;9.926;2022-12-18T09:03:52;-4.00;99.90
17954;DHT22;9102;53.548;9.926;2022-12-18T09:06:20;-3.90;99.90
17954;DHT22;9102;53.548;9.926;2022-12-18T09:08:48;-3.90;99.90
17954;DHT22;9102;53.548;9.926;2022-12-18T09:11:19;-3.90;99.90
17954;DHT22;9102;53.548;9.926;2022-12-18T09:13:46;-3.90;99.90
17954;DHT22;9102;53.548;9.926;2022-12-18T09:16:13;-3.80;99.90
17954;DHT22;9102;53.548;9.926;2022-12-18T09:18:40;-3.80;99.90
17954;DHT22;9102;53.548;9.926;2022-12-18T09:21:13;-3.80;99.90
17954;DHT22;9102;53.548;9.926;2022-12-18T09:23:40;-3.70;99.90
17954;DHT22;9102;53.548;9.926;2022-12-18T09:26:07;-3.70;99.90
17954;DHT22;9102;53.548;9.926;2022-12-18T09:28:34;-3.60;99.90
17954;DHT22;9102;53.548;9.926;2022-12-18T09:31:05;-3.50;99.90
17954;DHT22;9102;53.548;9.926;2022-12-18T09:33:33;-3.40;99.90
17954;DHT22;9102;53.548;9.926;2022-12-18T09:36:01;-3.40;99.90
17954;DHT22;9102;53.548;9.926;2022-12-18T09:38:30;-3.40;99.90
17954;DHT22;9102;53.548;9.926;2022-12-18T09:41:00;-3.30;99.90
17954;DHT22;9102;53.548;9.926;2022-12-18T09:43:35;-3.30;99.90
17954;DHT22;9102;53.548;9.926;2022-12-18T09:46:07;-3.20;99.90
17954;DHT22;9102;53.548;9.926;2022-12-18T09:48:37;-3.10;99.90
17954;DHT22;9102;53.548;9.926;2022-12-18T09:51:11;-3.10;99.90
17954;DHT22;9102;53.548;9.926;2022-12-18T09:53:41;-3.00;99.90
17954;DHT22;9102;53.548;9.926;2022-12-18T09:56:12;-2.90;99.90
17954;DHT22;9102;53.548;9.926;2022-12-18T09:58:46;-2.90;99.90
17954;DHT22;9102;53.548;9.926;2022-12-18T10:01:20;-2.80;99.90
17954;DHT22;9102;53.548;9.926;2022-12-18T10:03:48;-2.80;99.90
17954;DHT22;9102;53.548;9.926;2022-12-18T10:06:20;-2.70;99.90
17954;DHT22;9102;53.548;9.926;2022-12-18T10:08:54;-2.60;99.90
17954;DHT22;9102;53.548;9.926;2022-12-18T10:11:32;-2.50;99.90
17954;DHT22;9102;53.548;9.926;2022-12-18T10:14:04;-2.40;99.90
17954;DHT22;9102;53.548;9.926;2022-12-18T10:16:38;-2.40;99.90
17954;DHT22;9102;53.548;9.926;2022-12-18T10:19:18;-2.20;99.90
17954;DHT22;9102;53.548;9.926;2022-12-18T10:21:51;-2.20;99.90
17954;DHT22;9102;53.548;9.926;2022-12-18T10:24:28;-2.10;99.90
17954;DHT22;9102;53.548;9.926;2022-12-18T10:27:04;-2.10;99.90
17954;DHT22;9102;53.548;9.926;2022-12-18T10:29:36;-2.00;99.90
17954;DHT22;9102;53.548;9.926;2022-12-18T10:32:03;-2.00;99.90
17954;DHT22;9102;53.548;9.926;2022-12-18T10:34:31;-2.00;99.90
17954;DHT22;9102;53.548;9.926;2022-12-18T10:37:00;-2.00;99.90
17954;DHT22;9102;53.548;9.926;2022-12-18T10:39:28;-2.00;99.90
17954;DHT22;9102;53.548;9.926;2022-12-18T10:42:10;-2.00;99.90
17954;DHT22;9102;53.548;9.926;2022-12-18T10:44:37;-2.00;99.90
17954;DHT22;9102;53.548;9.926;2022-12-18T10:47:05;-2.00;99.90
17954;DHT22;9102;53.548;9.926;2022-12-18T10:49:33;-2.00;99.90
17954;DHT22;9102;53.548;9.926;2022-12-18T10:52:07;-1.90;99.90
17954;DHT22;9102;53.548;9.926;2022-12-18T10:54:39;-1.80;99.90
17954;DHT22;9102;53.548;9.926;2022-12-18T10:57:16;-1.80;99.90
17954;DHT22;9102;53.548;9.926;2022-12-18T10:59:51;-1.80;99.90
17954;DHT22;9102;53.548;9.926;2022-12-18T11:02:27;-1.80;99.90
17954;DHT22;9102;53.548;9.926;2022-12-18T11:04:54;-1.80;99.90
17954;DHT22;9102;53.548;9.926;2022-12-18T11:07:21;-1.70;99.90
17954;DHT22;9102;53.548;9.926;2022-12-18T11:10:00;-1.70;99.90
17954;DHT22;9102;53.548;9.926;2022-12-18T11:12:28;-1.70;99.90
17954;DHT22;9102;53.548;9.926;2022-12-18T11:14:55;-1.70;99.90
17954;DHT22;9102;53.548;9.926;2022-12-18T11:17:27;-1.70;99.90
17954;DHT22;9102;53.548;9.926;2022-12-18T11:19:56;-1.60;99.90
17954;DHT22;9102;53.548;9.926;2022-12-18T11:22:25;-1.60;99.90
17954;DHT22;9102;53.548;9.926;2022-12-18T11:24:57;-1.60;99.90
17954;DHT22;9102;53.548;9.926;2022-12-18T11:27:25;-1.60;99.90
17954;DHT22;9102;53.548;9.926;2022-12-18T11:29:52;-1.60;99.90
17954;DHT22;9102;53.548;9.926;2022-12-18T11:32:25;-1.50;99.90
17954;DHT22;9102;53.548;9.926;2022-12-18T11:34:59;-1.60;99.90
17954;DHT22;9102;53.548;9.926;2022-12-18T11:37:28;-1.60;99.90
17954;DHT22;9102;53.548;9.926;2022-12-18T11:39:59;-1.60;99.90
17954;DHT22;9102;53.548;9.926;2022-12-18T11:42:32;-1.70;99.90
17954;DHT22;9102;53.548;9.926;2022-12-18T11:45:22;-1.60;99.90
17954;DHT22;9102;53.548;9.926;2022-12-18T11:47:54;-1.60;99.90
17954;DHT22;9102;53.548;9.926;2022-12-18T11:50:24;-1.60;99.90
17954;DHT22;9102;53.548;9.926;2022-12-18T11:52:52;-1.50;99.90
17954;DHT22;9102;53.548;9.926;2022-12-18T11:55:28;-1.50;99.90
17954;DHT22;9102;53.548;9.926;2022-12-18T11:58:03;-1.60;99.90
17954;DHT22;9102;53.548;9.926;2022-12-18T12:00:35;-1.80;99.90
17954;DHT22;9102;53.548;9.926;2022-12-18T12:03:26;-1.90;99.90
17954;DHT22;9102;53.548;9.926;2022-12-18T12:06:08;-2.00;99.90
17954;DHT22;9102;53.548;9.926;2022-12-18T12:08:46;-1.90;99.90
17954;DHT22;9102;53.548;9.926;2022-12-18T12:11:24;-2.00;99.90
17954;DHT22;9102;53.548;9.926;2022-12-18T12:14:04;-1.90;99.90
17954;DHT22;9102;53.548;9.926;2022-12-18T12:16:36;-1.80;99.90
17954;DHT22;9102;53.548;9.926;2022-12-18T12:19:20;-1.80;99.90
17954;DHT22;9102;53.548;9.926;2022-12-18T12:21:54;-1.80;99.90
17954;DHT22;9102;53.548;9.926;2022-12-18T12:24:35;-1.80;99.90
17954;DHT22;9102;53.548;9.926;2022-12-18T12:27:12;-1.70;99.90
17954;DHT22;9102;53.548;9.926;2022-12-18T12:29:50;-1.70;99.90
17954;DHT22;9102;53.548;9.926;2022-12-18T12:32:27;-1.70;99.90
17954;DHT22;9102;53.548;9.926;2022-12-18T12:35:08;-1.80;99.90
17954;DHT22;9102;53.548;9.926;2022-12-18T12:37:45;-1.70;99.90
17954;DHT22;9102;53.548;9.926;2022-12-18T12:40:18;-1.60;99.90
17954;DHT22;9102;53.548;9.926;2022-12-18T12:42:48;-1.60;99.90
17954;DHT22;9102;53.548;9.926;2022-12-18T12:45:38;-1.60;99.90
17954;DHT22;9102;53.548;9.926;2022-12-18T12:48:14;-1.50;99.90
17954;DHT22;9102;53.548;9.926;2022-12-18T12:50:43;-1.30;99.90
17954;DHT22;9102;53.548;9.926;2022-12-18T12:53:25;-1.30;99.90
17954;DHT22;9102;53.548;9.926;2022-12-18T12:55:52;-1.20;99.90
17954;DHT22;9102;53.548;9.926;2022-12-18T12:58:29;-1.30;99.90
17954;DHT22;9102;53.548;9.926;2022-12-18T13:01:08;-1.30;99.90
17954;DHT22;9102;53.548;9.926;2022-12-18T13:03:44;-1.30;99.90
17954;DHT22;9102;53.548;9.926;2022-12-18T13:06:18;-1.30;99.90
17954;DHT22;9102;53.548;9.926;2022-12-18T13:08:55;-1.40;99.90
17954;DHT22;9102;53.548;9.926;2022-12-18T13:11:46;-1.40;99.90
17954;DHT22;9102;53.548;9.926;2022-12-18T13:14:34;-1.40;99.90
17954;DHT22;9102;53.548;9.926;2022-12-18T13:17:27;-1.40;99.90
17954;DHT22;9102;53.548;9.926;2022-12-18T13:20:06;-1.40;99.90
17954;DHT22;9102;53.548;9.926;2022-12-18T13:22:35;-1.40;99.90
17954;DHT22;9102;53.548;9.926;2022-12-18T13:25:04;-1.30;99.90
17954;DHT22;9102;53.548;9.926;2022-12-18T13:28:09;-1.30;99.90
17954;DHT22;9102;53.548;9.926;2022-12-18T13:30:53;-1.40;99.90
17954;DHT22;9102;53.548;9.926;2022-12-18T13:33:47;-1.50;99.90
17954;DHT22;9102;53.548;9.926;2022-12-18T13:36:29;-1.50;99.90
17954;DHT22;9102;53.548;9.926;2022-12-18T13:39:10;-1.60;99.90
17954;DHT22;9102;53.548;9.926;2022-12-18T13:41:38;-1.70;99.90
17954;DHT22;9102;53.548;9.926;2022-12-18T13:44:24;-1.70;99.90
17954;DHT22;9102;53.548;9.926;2022-12-18T13:46:54;-1.70;99.90
17954;DHT22;9102;53.548;9.926;2022-12-18T13:49:24;-1.80;99.90
17954;DHT22;9102;53.548;9.926;2022-12-18T13:51:54;-1.80;99.90
17954;DHT22;9102;53.548;9.926;2022-12-18T13:54:25;-1.80;99.90
17954;DHT22;9102;53.548;9.926;2022-12-18T13:56:54;-1.80;99.90
17954;DHT22;9102;53.548;9.926;2022-12-18T13:59:22;-1.90;99.90
17954;DHT22;9102;53.548;9.926;2022-12-18T14:01:54;-1.90;99.90
17954;DHT22;9102;53.548;9.926;2022-12-18T14:04:28;-1.90;99.90
17954;DHT22;9102;53.548;9.926;2022-12-18T14:07:01;-1.90;99.90
17954;DHT22;9102;53.548;9.926;2022-12-18T14:09:30;-1.90;99.90
17954;DHT22;9102;53.548;9.926;2022-12-18T14:11:58;-2.00;99.90
17954;DHT22;9102;53.548;9.926;2022-12-18T14:14:42;-1.90;99.90
17954;DHT22;9102;53.548;9.926;2022-12-18T14:17:12;-2.00;99.90
17954;DHT22;9102;53.548;9.926;2022-12-18T14:19:42;-2.00;99.90
17954;DHT22;9102;53.548;9.926;2022-12-18T14:22:15;-2.00;99.90
17954;DHT22;9102;53.548;9.926;2022-12-18T14:24:42;-2.10;99.90
17954;DHT22;9102;53.548;9.926;2022-12-18T14:27:20;-2.10;99.90
17954;DHT22;9102;53.548;9.926;2022-12-18T14:29:47;-2.20;99.90
17954;DHT22;9102;53.548;9.926;2022-12-18T14:32:17;-2.20;99.90
17954;DHT22;9102;53.548;9.926;2022-12-18T14:34:45;-2.20;99.90
17954;DHT22;9102;53.548;9.926;2022-12-18T14:37:14;-2.20;99.90
17954;DHT22;9102;53.548;9.926;2022-12-18T14:39:54;-2.20;99.90
17954;DHT22;9102;53.548;9.926;2022-12-18T14:42:22;-2.20;99.90
17954;DHT22;9102;53.548;9.926;2022-12-18T14:44:48;-2.30;99.90
17954;DHT22;9102;53.548;9.926;2022-12-18T14:47:17;-2.30;99.90
17954;DHT22;9102;53.548;9.926;2022-12-18T14:49:46;-2.30;99.90
17954;DHT22;9102;53.548;9.926;2022-12-18T14:52:22;-2.20;99.90
17954;DHT22;9102;53.548;9.926;2022-12-18T14:54:50;-2.40;99.90
17954;DHT22;9102;53.548;9.926;2022-12-18T14:57:22;-2.40;99.90
17954;DHT22;9102;53.548;9.926;2022-12-18T14:59:49;-2.40;99.90
17954;DHT22;9102;53.548;9.926;2022-12-18T15:02:26;-2.40;99.90
17954;DHT22;9102;53.548;9.926;2022-12-18T15:05:00;-2.40;99.90
17954;DHT22;9102;53.548;9.926;2022-12-18T15:07:40;-2.50;99.90
17954;DHT22;9102;53.548;9.926;2022-12-18T15:10:12;-2.50;99.90
17954;DHT22;9102;53.548;9.926;2022-12-18T15:12:41;-2.50;99.90
17954;DHT22;9102;53.548;9.926;2022-12-18T15:15:45;-2.60;99.90
17954;DHT22;9102;53.548;9.926;2022-12-18T15:18:15;-2.60;99.90
17954;DHT22;9102;53.548;9.926;2022-12-18T15:20:44;-2.60;99.90
17954;DHT22;9102;53.548;9.926;2022-12-18T15:23:20;-2.60;99.90
17954;DHT22;9102;53.548;9.926;2022-12-18T15:25:49;-2.60;99.90
17954;DHT22;9102;53.548;9.926;2022-12-18T15:28:23;-2.60;99.90
17954;DHT22;9102;53.548;9.926;2022-12-18T15:31:02;-2.70;99.90
17954;DHT22;9102;53.548;9.926;2022-12-18T15:33:32;-2.60;99.90
17954;DHT22;9102;53.548;9.926;2022-12-18T15:36:01;-2.60;99.90
17954;DHT22;9102;53.548;9.926;2022-12-18T15:38:28;-2.70;99.90
17954;DHT22;9102;53.548;9.926;2022-12-18T15:40:57;-2.60;99.90
17954;DHT22;9102;53.548;9.926;2022-12-18T15:43:26;-2.60;99.90
17954;DHT22;9102;53.548;9.926;2022-12-18T15:46:05;-2.60;99.90
17954;DHT22;9102;53.548;9.926;2022-12-18T15:48:40;-2.60;99.90
17954;DHT22;9102;53.548;9.926;2022-12-18T15:51:13;-2.60;99.90
17954;DHT22;9102;53.548;9.926;2022-12-18T15:53:40;-2.50;99.90
17954;DHT22;9102;53.548;9.926;2022-12-18T15:56:10;-2.50;99.90
17954;DHT22;9102;53.548;9.926;2022-12-18T15:58:54;-2.50;99.90
17954;DHT22;9102;53.548;9.926;2022-12-18T16:01:23;-2.60;99.90
17954;DHT22;9102;53.548;9.926;2022-12-18T16:03:54;-2.50;99.90
17954;DHT22;9102;53.548;9.926;2022-12-18T16:06:22;-2.60;99.90
17954;DHT22;9102;53.548;9.926;2022-12-18T16:08:50;-2.60;99.90